createdAt,value
2023-04-02T08:01:09.969Z,94637.00
2023-04-02T08:02:09.980Z,94639.00
2023-04-02T08:03:10.166Z,94639.00
2023-04-02T08:04:10.085Z,94641.00
2023-04-02T08:05:10.028Z,94641.00
2023-04-02T08:06:10.076Z,94648.00
2023-04-02T08:07:10.047Z,94639.00
2023-04-02T08:08:10.059Z,94641.00
2023-04-02T08:09:10.108Z,94650.00
2023-04-02T08:10:10.204Z,94648.00
2023-04-02T08:11:10.272Z,94650.00
2023-04-02T08:12:10.272Z,94648.00
2023-04-02T08:13:10.276Z,94648.00
2023-04-02T08:14:10.313Z,94650.00
2023-04-02T08:15:10.345Z,94652.00
2023-04-02T08:16:10.431Z,94650.00
2023-04-02T08:17:10.400Z,94650.00
2023-04-02T08:18:10.451Z,94648.00
2023-04-02T08:19:10.431Z,94650.00
2023-04-02T08:20:10.473Z,94652.00
2023-04-02T08:21:10.526Z,94652.00
2023-04-02T08:22:10.474Z,94652.00
2023-04-02T08:23:10.533Z,94652.00
2023-04-02T08:24:10.537Z,94650.00
2023-04-02T08:25:10.549Z,94654.00
2023-04-02T08:26:10.597Z,94654.00
2023-04-02T08:27:10.566Z,94652.00
2023-04-02T08:28:10.627Z,94654.00
2023-04-02T08:29:10.648Z,94654.00
2023-04-02T08:30:10.620Z,94654.00
2023-04-02T08:31:10.751Z,94656.00
2023-04-02T08:32:10.660Z,94656.00
2023-04-02T08:33:10.740Z,94654.00
2023-04-02T08:34:10.751Z,94660.00
2023-04-02T08:35:10.734Z,94650.00
2023-04-02T08:36:10.786Z,94650.00
2023-04-02T08:37:10.775Z,94652.00
2023-04-02T08:38:10.803Z,94652.00
2023-04-02T08:39:10.842Z,94650.00
2023-04-02T08:40:10.814Z,94648.00
2023-04-02T08:41:10.863Z,94641.00
2023-04-02T08:42:10.871Z,94648.00
2023-04-02T08:43:10.920Z,94639.00
2023-04-02T08:44:10.890Z,94639.00
2023-04-02T08:45:23.447Z,94637.00
2023-04-02T08:46:11.940Z,94637.00
2023-04-02T08:47:10.894Z,94635.00
2023-04-02T08:48:10.915Z,94633.00
2023-04-02T08:49:10.878Z,94631.00
2023-04-02T08:50:10.928Z,94635.00
2023-04-02T08:51:10.839Z,94633.00
2023-04-02T08:52:10.875Z,94635.00
2023-04-02T08:53:10.861Z,94633.00
2023-04-02T08:54:10.855Z,94631.00
2023-04-02T08:55:10.834Z,94631.00
2023-04-02T08:56:10.823Z,94633.00
2023-04-02T08:57:10.845Z,94635.00
2023-04-02T08:58:10.825Z,94631.00
2023-04-02T08:59:10.811Z,94633.00
2023-04-02T09:00:10.826Z,94629.00
2023-04-02T09:01:10.835Z,94629.00
2023-04-02T09:02:10.810Z,94627.00
2023-04-02T09:03:10.884Z,94627.00
2023-04-02T09:04:10.771Z,94627.00
2023-04-02T09:05:10.849Z,94627.00
2023-04-02T09:06:10.753Z,94625.00
2023-04-02T09:07:10.746Z,94625.00
2023-04-02T09:08:10.745Z,94627.00
2023-04-02T09:09:10.814Z,94621.00
2023-04-02T09:10:10.791Z,94623.00
2023-04-02T09:11:10.803Z,94619.00
2023-04-02T09:12:10.800Z,94621.00
2023-04-02T09:13:10.845Z,94621.00
2023-04-02T09:14:10.824Z,94627.00
2023-04-02T09:15:10.832Z,94623.00
2023-04-02T09:16:10.898Z,94625.00
2023-04-02T09:17:10.841Z,94623.00
2023-04-02T09:18:10.950Z,94623.00
2023-04-02T09:19:10.921Z,94621.00
2023-04-02T09:20:10.927Z,94621.00
2023-04-02T09:21:10.947Z,94619.00
2023-04-02T09:22:10.970Z,94621.00
2023-04-02T09:23:10.937Z,94621.00
2023-04-02T09:24:11.000Z,94621.00
2023-04-02T09:25:11.003Z,94619.00
2023-04-02T09:26:10.980Z,94619.00
2023-04-02T09:27:10.997Z,94621.00
2023-04-02T09:28:11.032Z,94627.00
2023-04-02T09:29:11.075Z,94625.00
2023-04-02T09:30:11.088Z,94623.00
2023-04-02T09:31:11.117Z,94627.00
2023-04-02T09:32:11.062Z,94627.00
2023-04-02T09:33:11.195Z,94627.00
2023-04-02T09:34:11.103Z,94625.00
2023-04-02T09:35:22.308Z,94625.00
2023-04-02T09:36:13.068Z,94619.00
2023-04-02T09:37:11.086Z,94619.00
2023-04-02T09:38:11.102Z,94623.00
2023-04-02T09:39:11.073Z,94621.00
2023-04-02T09:40:11.059Z,94621.00
2023-04-02T09:41:11.058Z,94619.00
2023-04-02T09:42:11.058Z,94621.00
2023-04-02T09:43:11.063Z,94619.00
2023-04-02T09:44:11.048Z,94621.00
2023-04-02T09:45:11.040Z,94621.00
2023-04-02T09:46:11.079Z,94619.00
2023-04-02T09:47:11.010Z,94621.00
2023-04-02T09:48:11.072Z,94621.00
2023-04-02T09:49:11.001Z,94621.00
2023-04-02T09:50:11.020Z,94623.00
2023-04-02T09:51:11.042Z,94625.00
2023-04-02T09:52:11.001Z,94623.00
2023-04-02T09:53:11.006Z,94627.00
2023-04-02T09:54:11.000Z,94627.00
2023-04-02T09:55:10.935Z,94627.00
2023-04-02T09:56:11.036Z,94627.00
2023-04-02T09:57:10.996Z,94629.00
2023-04-02T09:58:10.956Z,94627.00
2023-04-02T09:59:10.980Z,94629.00
2023-04-02T10:00:25.415Z,94627.00
2023-04-02T10:01:11.959Z,94623.00
2023-04-02T10:02:10.941Z,94629.00
2023-04-02T10:03:10.896Z,94635.00
2023-04-02T10:04:10.947Z,94633.00
2023-04-02T10:05:10.901Z,94631.00
2023-04-02T10:06:10.908Z,94631.00
2023-04-02T10:07:10.922Z,94635.00
2023-04-02T10:08:10.876Z,94631.00
2023-04-02T10:09:10.889Z,94631.00
2023-04-02T10:10:10.856Z,94631.00
2023-04-02T10:11:10.853Z,94631.00
2023-04-02T10:12:10.870Z,94631.00
2023-04-02T10:13:10.845Z,94627.00
2023-04-02T10:14:10.865Z,94633.00
2023-04-02T10:15:10.840Z,94629.00
2023-04-02T10:16:10.910Z,94627.00
2023-04-02T10:17:10.937Z,94625.00
2023-04-02T10:18:10.861Z,94625.00
2023-04-02T10:19:10.838Z,94627.00
2023-04-02T10:20:10.804Z,94623.00
2023-04-02T10:21:10.834Z,94625.00
2023-04-02T10:22:10.811Z,94625.00
2023-04-02T10:23:10.789Z,94625.00
2023-04-02T10:24:10.785Z,94623.00
2023-04-02T10:25:10.775Z,94623.00
2023-04-02T10:26:10.790Z,94623.00
2023-04-02T10:27:10.783Z,94625.00
2023-04-02T10:28:10.808Z,94621.00
2023-04-02T10:29:10.801Z,94621.00
2023-04-02T10:30:10.837Z,94623.00
2023-04-02T10:31:10.877Z,94623.00
2023-04-02T10:32:10.885Z,94623.00
2023-04-02T10:33:10.956Z,94621.00
2023-04-02T10:34:10.870Z,94627.00
2023-04-02T10:35:10.909Z,94625.00
2023-04-02T10:36:10.945Z,94627.00
2023-04-02T10:37:10.913Z,94627.00
2023-04-02T10:38:10.952Z,94623.00
2023-04-02T10:39:10.899Z,94627.00
2023-04-02T10:40:10.905Z,94629.00
2023-04-02T10:41:10.937Z,94629.00
2023-04-02T10:42:10.950Z,94625.00
2023-04-02T10:43:10.974Z,94625.00
2023-04-02T10:44:19.696Z,94627.00
2023-04-02T10:45:11.930Z,94629.00
2023-04-02T10:46:11.178Z,94627.00
2023-04-02T10:47:10.933Z,94627.00
2023-04-02T10:48:10.944Z,94627.00
2023-04-02T10:49:10.980Z,94631.00
2023-04-02T10:50:10.902Z,94631.00
2023-04-02T10:51:10.932Z,94631.00
2023-04-02T10:52:10.904Z,94629.00
2023-04-02T10:53:10.894Z,94627.00
2023-04-02T10:54:10.904Z,94629.00
2023-04-02T10:55:10.887Z,94631.00
2023-04-02T10:56:10.868Z,94631.00
2023-04-02T10:57:10.922Z,94631.00
2023-04-02T10:58:10.886Z,94631.00
2023-04-02T10:59:10.835Z,94633.00
2023-04-02T11:00:10.852Z,94637.00
2023-04-02T11:01:10.852Z,94637.00
2023-04-02T11:02:10.818Z,94637.00
2023-04-02T11:03:10.880Z,94639.00
2023-04-02T11:04:11.228Z,94637.00
2023-04-02T11:05:10.809Z,94639.00
2023-04-02T11:06:12.088Z,94635.00
2023-04-02T11:07:14.563Z,94637.00
2023-04-02T11:08:10.777Z,94637.00
2023-04-02T11:09:10.779Z,94637.00
2023-04-02T11:10:10.867Z,94637.00
2023-04-02T11:11:10.794Z,94639.00
2023-04-02T11:12:10.746Z,94639.00
2023-04-02T11:13:10.751Z,94641.00
2023-04-02T11:14:10.756Z,94650.00
2023-04-02T11:15:10.710Z,94648.00
2023-04-02T11:16:10.767Z,94650.00
2023-04-02T11:17:10.734Z,94652.00
2023-04-02T11:18:10.736Z,94652.00
2023-04-02T11:19:10.705Z,94652.00
2023-04-02T11:20:10.722Z,94654.00
2023-04-02T11:21:10.704Z,94656.00
2023-04-02T11:22:10.677Z,94656.00
2023-04-02T11:23:10.673Z,94658.00
2023-04-02T11:24:10.683Z,94656.00
2023-04-02T11:25:10.673Z,94660.00
2023-04-02T11:26:10.679Z,94656.00
2023-04-02T11:27:10.676Z,94654.00
2023-04-02T11:28:10.680Z,94658.00
2023-04-02T11:29:10.661Z,94660.00
2023-04-02T11:30:10.693Z,94664.00
2023-04-02T11:31:10.708Z,94660.00
2023-04-02T11:32:10.605Z,94662.00
2023-04-02T11:33:10.676Z,94664.00
2023-04-02T11:34:10.606Z,94666.00
2023-04-02T11:35:10.608Z,94670.00
2023-04-02T11:36:10.634Z,94668.00
2023-04-02T11:37:10.596Z,94668.00
2023-04-02T11:38:10.626Z,94668.00
2023-04-02T11:39:16.971Z,94668.00
2023-04-02T11:40:11.599Z,94670.00
2023-04-02T11:41:10.591Z,94670.00
2023-04-02T11:42:10.577Z,94672.00
2023-04-02T11:43:10.553Z,94670.00
2023-04-02T11:44:10.554Z,94672.00
2023-04-02T11:45:10.569Z,94676.00
2023-04-02T11:46:10.565Z,94676.00
2023-04-02T11:47:10.509Z,94678.00
2023-04-02T11:48:10.539Z,94678.00
2023-04-02T11:49:10.512Z,94676.00
2023-04-02T11:50:10.524Z,94680.00
2023-04-02T11:51:10.487Z,94680.00
2023-04-02T11:52:12.597Z,94678.00
2023-04-02T11:53:10.497Z,94684.00
2023-04-02T11:54:10.477Z,94682.00
2023-04-02T11:55:10.502Z,94686.00
2023-04-02T11:56:10.486Z,94684.00
2023-04-02T11:57:10.497Z,94686.00
2023-04-02T11:58:10.507Z,94684.00
2023-04-02T11:59:10.500Z,94686.00
2023-04-02T12:00:10.497Z,94686.00
2023-04-02T12:01:10.507Z,94690.00
2023-04-02T12:02:10.596Z,94688.00
2023-04-02T12:03:10.515Z,94690.00
2023-04-02T12:04:10.536Z,94688.00
2023-04-02T12:05:10.614Z,94690.00
2023-04-02T12:06:10.538Z,94692.00
2023-04-02T12:07:10.530Z,94690.00
2023-04-02T12:08:10.531Z,94690.00
2023-04-02T12:09:10.590Z,94692.00
2023-04-02T12:10:10.596Z,94694.00
2023-04-02T12:11:10.614Z,94696.00
2023-04-02T12:12:10.595Z,94694.00
2023-04-02T12:13:10.632Z,94696.00
2023-04-02T12:14:10.675Z,94694.00
2023-04-02T12:15:10.585Z,94694.00
2023-04-02T12:16:10.644Z,94692.00
2023-04-02T12:17:10.665Z,94692.00
2023-04-02T12:18:10.709Z,94692.00
2023-04-02T12:19:10.608Z,94692.00
2023-04-02T12:20:10.721Z,94694.00
2023-04-02T12:21:10.701Z,94694.00
2023-04-02T12:22:10.666Z,94696.00
2023-04-02T12:23:10.642Z,94700.00
2023-04-02T12:24:10.634Z,94698.00
2023-04-02T12:25:10.675Z,94702.00
2023-04-02T12:26:10.670Z,94702.00
2023-04-02T12:27:10.655Z,94702.00
2023-04-02T12:28:10.696Z,94702.00
2023-04-02T12:29:10.710Z,94703.00
2023-04-02T12:30:10.698Z,94705.00
2023-04-02T12:31:10.744Z,94703.00
2023-04-02T12:32:10.699Z,94705.00
2023-04-02T12:33:10.814Z,94705.00
2023-04-02T12:34:10.760Z,94707.00
2023-04-02T12:35:10.746Z,94709.00
2023-04-02T12:36:10.760Z,94707.00
2023-04-02T12:37:10.778Z,94711.00
2023-04-02T12:38:10.764Z,94715.00
2023-04-02T12:39:10.804Z,94715.00
2023-04-02T12:40:10.798Z,94713.00
2023-04-02T12:41:10.818Z,94717.00
2023-04-02T12:42:10.819Z,94717.00
2023-04-02T12:43:10.802Z,94713.00
2023-04-02T12:44:10.845Z,94715.00
2023-04-02T12:45:10.860Z,94715.00
2023-04-02T12:46:10.856Z,94717.00
2023-04-02T12:47:10.850Z,94723.00
2023-04-02T12:48:10.911Z,94723.00
2023-04-02T12:49:10.884Z,94721.00
2023-04-02T12:50:10.897Z,94725.00
2023-04-02T12:51:10.892Z,94725.00
2023-04-02T12:52:11.021Z,94729.00
2023-04-02T12:53:10.937Z,94727.00
2023-04-02T12:54:10.942Z,94727.00
2023-04-02T12:55:10.927Z,94729.00
2023-04-02T12:56:10.922Z,94731.00
2023-04-02T12:57:10.975Z,94727.00
2023-04-02T12:58:10.972Z,94731.00
2023-04-02T12:59:10.939Z,94727.00
